Etusivu
METAR-TAF:

METAR-TAF

Lentoasemat :

Amman, Jordania

Leveyspiiri: 31-59N, Pituuspiiri: 035-59E, korkeus merenpinnasta: 767 m

Tämänhetkinen sää

Tämä raportti tehtiin 16 minuuttia sitten, kello 02.00 UTC
Tuuli 2 kn eri suunnista
Lämpötila 17°C
Kosteus 32%
Ilmanpaine 1015 hPa
Näkyvyys: 7000 m

METAR: OJAM 270200Z VRB02KT 7000 NSC 17/00 Q1015 NOSIG

Aika: 05:16 (02:16 UTC)

Sääennuste

Tämä raportti tehtiin 3 tuntia ja 26 minuuttia sitten, kello 22.50 UTC
Ennuste voimassa 27. päivästä klo 00 UTC - 28. päivään klo 06 UTC
Tuuli 2 kn eri suunnista
Näkyvyys: 6000 m
Tulossa
27. päivästä klo 08 UTC - 27. päivään klo 10 UTC
Tuuli 12 kn lännestä
Näkyvyys: 5000 m
usvaa

TAF: OJAM 262250Z 2700/2806 VRB02KT 6000 NSC BECMG 2708/2710 28012KT 5000 HZ

Säähavainnot ja -ennusteet yli 4000 lentoasemalta (METAR- ja TAF-raportit).

Käytössä olevat sääasemat on merkitty karttaan keltaisilla ja punaisilla pisteillä.

Aseta hiiri pisteen päälle nähdäksesi sääaseman nimen.

Klikkaa sitten nähdäksesi säähavainnot ja -ennusteet.

Kartan vaihtaminen: klikkaa mustalla rastilla varustettuja vihreitä pisteitä, niin voit zoomata sisään; viivalla varustettua vihreää pistettä, niin voit zoomata ulos tai vihreitä nuolia, niin pääset viereisille kartoille.


METAR-TAF: